Ninde, Virginia
Current Conditions -  °F | °C
As of 5:56 AM on Sunday 23 Nov 2014 (Local Time) from KNYG Reporting Station
Clear Clear  
Wind Chill: 35°   Ceiling: Unl
Heat Index: 40°   Visibility: 10mi
Dew Point: 19°   Wind: 7mph
Humidity: 43%   Direction: 200°SSW
Pressure: 30.24"   Gusts: NA
Location:  38.27°N, 77.06°W
Report Text: KNYG 231056Z AUTO 20006KT 10SM CLR 04/M07 A3024 RMK AO2 SLP241 T00441072 $
Loading
Personal Weather Stations






























Interactive Weather Map New forecast layout! Learn more

10-Day Weather Forecast

Advertisements
Track Severe Weather on mobile